createdAt,value
2022-12-23T00:01:23.091Z,75.48
2022-12-23T00:03:50.717Z,75.38
2022-12-23T00:06:18.834Z,75.19
2022-12-23T00:08:46.636Z,75.11
2022-12-23T00:11:16.533Z,75.43
2022-12-23T00:14:01.878Z,75.45
2022-12-23T00:16:29.453Z,75.18
2022-12-23T00:18:56.937Z,75.17
2022-12-23T00:21:24.342Z,75.01
2022-12-23T00:23:51.956Z,75.18
2022-12-23T00:26:22.297Z,75.53
2022-12-23T00:28:49.693Z,75.38
2022-12-23T00:31:18.578Z,75.23
2022-12-23T00:33:48.358Z,75.25
2022-12-23T00:36:17.925Z,75.26
2022-12-23T00:39:03.216Z,74.96
2022-12-23T00:41:49.787Z,75.25
2022-12-23T00:44:17.232Z,75.29
2022-12-23T00:46:44.647Z,75.06
2022-12-23T00:49:30.296Z,75.34
2022-12-23T00:51:57.707Z,75.23
2022-12-23T00:54:25.262Z,75.22
2022-12-23T00:56:53.970Z,75.31
2022-12-23T00:59:21.409Z,75.36
2022-12-23T01:02:06.846Z,75.30
2022-12-23T01:04:52.288Z,75.37
2022-12-23T01:07:19.671Z,75.44
2022-12-23T01:09:47.151Z,75.09
2022-12-23T01:12:15.843Z,75.26
2022-12-23T01:14:43.227Z,75.08
2022-12-23T01:17:10.736Z,75.30
2022-12-23T01:19:38.387Z,75.48
2022-12-23T01:22:05.834Z,75.24
2022-12-23T01:24:33.577Z,75.54
2022-12-23T01:27:01.230Z,75.25
2022-12-23T01:29:29.942Z,75.25
2022-12-23T01:31:57.453Z,75.53
2022-12-23T01:34:26.004Z,75.55
2022-12-23T01:36:55.915Z,75.31
2022-12-23T01:39:23.314Z,75.34
2022-12-23T01:42:08.321Z,75.61
2022-12-23T01:44:56.846Z,75.47
2022-12-23T01:47:29.701Z,75.17
2022-12-23T01:49:58.408Z,75.44
2022-12-23T01:52:25.846Z,75.45
2022-12-23T01:54:53.246Z,75.88
2022-12-23T01:57:20.685Z,75.72
2022-12-23T02:00:05.687Z,76.13
2022-12-23T02:02:52.854Z,75.97
2022-12-23T02:05:20.406Z,76.12
2022-12-23T02:08:05.371Z,75.82
2022-12-23T02:10:36.656Z,76.46
2022-12-23T02:13:06.020Z,76.59
2022-12-23T02:16:04.454Z,76.30
2022-12-23T02:18:42.647Z,76.92
2022-12-23T02:21:19.450Z,76.23
2022-12-23T02:24:16.848Z,76.44
2022-12-23T02:27:11.893Z,76.08
2022-12-23T02:30:05.313Z,76.14
2022-12-23T02:32:39.723Z,76.35
2022-12-23T02:35:11.231Z,76.44
2022-12-23T02:37:41.549Z,76.90
2022-12-23T02:40:10.993Z,76.29
2022-12-23T02:42:39.678Z,76.30
2022-12-23T02:45:09.184Z,75.98
2022-12-23T02:47:40.426Z,76.21
2022-12-23T02:50:10.976Z,76.12
2022-12-23T02:52:38.698Z,76.54
2022-12-23T02:55:07.549Z,76.22
2022-12-23T02:57:36.779Z,76.03
2022-12-23T03:00:04.707Z,76.18
2022-12-23T03:02:32.343Z,76.58
2022-12-23T03:05:01.361Z,76.57
2022-12-23T03:07:31.752Z,75.96
2022-12-23T03:10:01.316Z,75.81
2022-12-23T03:12:33.721Z,76.48
2022-12-23T03:15:12.307Z,75.77
2022-12-23T03:17:47.762Z,76.01
2022-12-23T03:20:21.044Z,75.84
2022-12-23T03:22:50.477Z,76.00
2022-12-23T03:25:19.989Z,76.15
2022-12-23T03:27:49.301Z,76.09
2022-12-23T03:30:17.733Z,75.95
2022-12-23T03:32:46.918Z,75.73
2022-12-23T03:35:16.896Z,76.08
2022-12-23T03:37:45.983Z,76.22
2022-12-23T03:40:15.956Z,76.13
2022-12-23T03:42:43.353Z,76.13
2022-12-23T03:45:38.062Z,76.09
2022-12-23T03:48:01.621Z,75.65
2022-12-23T03:50:30.299Z,75.91
2022-12-23T03:52:59.185Z,75.95
2022-12-23T03:55:31.525Z,76.36
2022-12-23T03:58:01.604Z,75.97
2022-12-23T04:00:29.732Z,76.87
2022-12-23T04:02:59.217Z,75.92
2022-12-23T04:05:27.967Z,75.90
2022-12-23T04:07:59.493Z,76.09
2022-12-23T04:10:26.900Z,76.53
2022-12-23T04:12:54.370Z,76.22
2022-12-23T04:15:22.106Z,76.27
2022-12-23T04:17:49.858Z,76.30
2022-12-23T04:20:17.484Z,76.60
2022-12-23T04:22:44.924Z,75.88
2022-12-23T04:25:14.088Z,76.10
2022-12-23T04:27:41.863Z,77.49
2022-12-23T04:30:10.314Z,76.74
2022-12-23T04:32:37.821Z,76.18
2022-12-23T04:35:05.888Z,76.50
2022-12-23T04:37:33.303Z,76.31
2022-12-23T04:40:00.697Z,76.33
2022-12-23T04:42:29.393Z,76.16
2022-12-23T04:44:56.786Z,77.26
2022-12-23T04:47:24.225Z,76.21
2022-12-23T04:49:51.647Z,77.07
2022-12-23T04:52:19.107Z,75.91
2022-12-23T04:54:46.755Z,76.18
2022-12-23T04:57:14.325Z,76.03
2022-12-23T04:59:43.020Z,75.87
2022-12-23T05:02:10.535Z,76.63
2022-12-23T05:04:38.188Z,76.33
2022-12-23T05:07:05.592Z,76.12
2022-12-23T05:09:33.010Z,76.15
2022-12-23T05:12:00.456Z,76.29
2022-12-23T05:14:27.891Z,75.83
2022-12-23T05:16:59.536Z,75.63
2022-12-23T05:19:29.650Z,76.09
2022-12-23T05:21:57.056Z,76.22
2022-12-23T05:24:24.481Z,76.08
2022-12-23T05:26:59.265Z,75.90
2022-12-23T05:29:27.379Z,75.94
2022-12-23T05:31:56.159Z,75.73
2022-12-23T05:34:23.654Z,75.77
2022-12-23T05:36:51.075Z,76.30
2022-12-23T05:39:18.494Z,76.02
2022-12-23T05:41:46.628Z,76.07
2022-12-23T05:44:14.059Z,76.02
2022-12-23T05:46:41.532Z,76.02
2022-12-23T05:49:10.271Z,75.89
2022-12-23T05:51:37.667Z,76.00
2022-12-23T05:54:05.129Z,75.91
2022-12-23T05:56:32.535Z,75.78
2022-12-23T05:59:00.222Z,75.72
2022-12-23T06:01:27.688Z,76.61
2022-12-23T06:03:55.252Z,76.36
2022-12-23T06:06:24.073Z,76.67
2022-12-23T06:08:55.877Z,75.83
2022-12-23T06:11:26.919Z,75.84
2022-12-23T06:13:54.339Z,75.78
2022-12-23T06:16:21.786Z,75.75
2022-12-23T06:18:49.312Z,75.88
2022-12-23T06:21:16.747Z,76.25
2022-12-23T06:23:45.445Z,75.78
2022-12-23T06:26:12.857Z,75.95
2022-12-23T06:28:40.255Z,75.89
2022-12-23T06:31:07.686Z,76.27
2022-12-23T06:33:35.100Z,76.85
2022-12-23T06:36:02.534Z,76.19
2022-12-23T06:38:29.963Z,76.00
2022-12-23T06:40:58.654Z,76.46
2022-12-23T06:43:26.063Z,75.95
2022-12-23T06:45:53.492Z,75.83
2022-12-23T06:48:21.114Z,76.15
2022-12-23T06:50:48.620Z,75.97
2022-12-23T06:53:16.079Z,76.01
2022-12-23T06:55:43.523Z,75.68
2022-12-23T06:58:12.274Z,75.51
2022-12-23T07:00:39.689Z,75.61
2022-12-23T07:03:07.801Z,76.80
2022-12-23T07:05:37.561Z,75.31
2022-12-23T07:08:05.640Z,75.42
2022-12-23T07:10:33.061Z,75.55
2022-12-23T07:13:00.539Z,75.45
2022-12-23T07:15:29.370Z,75.96
2022-12-23T07:17:56.934Z,75.65
2022-12-23T07:20:24.347Z,75.45
2022-12-23T07:22:51.786Z,75.34
2022-12-23T07:25:19.235Z,75.26
2022-12-23T07:27:46.687Z,75.20
2022-12-23T07:30:14.233Z,75.33
2022-12-23T07:32:42.962Z,75.58
2022-12-23T07:35:10.694Z,75.43
2022-12-23T07:37:38.107Z,75.64
2022-12-23T07:40:08.850Z,75.64
2022-12-23T07:42:46.165Z,76.13
2022-12-23T07:45:14.412Z,76.09
2022-12-23T07:47:43.154Z,76.23
2022-12-23T07:50:10.896Z,76.77
2022-12-23T07:52:38.322Z,75.73
2022-12-23T07:55:06.562Z,75.81
2022-12-23T07:57:37.621Z,76.20
2022-12-23T08:00:28.255Z,75.68
2022-12-23T08:02:58.252Z,75.14
2022-12-23T08:05:26.121Z,75.03
2022-12-23T08:07:53.597Z,74.88
2022-12-23T08:10:21.009Z,75.22
2022-12-23T08:12:48.493Z,74.91
2022-12-23T08:15:15.933Z,75.03
2022-12-23T08:17:43.378Z,75.32
2022-12-23T08:20:12.628Z,75.56
2022-12-23T08:22:40.039Z,75.62
2022-12-23T08:25:08.169Z,75.70
2022-12-23T08:27:35.716Z,76.12
2022-12-23T08:30:03.235Z,76.22
2022-12-23T08:32:30.824Z,76.15
2022-12-23T08:34:58.321Z,75.76
2022-12-23T08:37:27.043Z,75.92
2022-12-23T08:39:54.458Z,75.83
2022-12-23T08:42:21.941Z,75.90
2022-12-23T08:44:49.404Z,75.90
2022-12-23T08:47:16.806Z,75.55
2022-12-23T08:49:44.211Z,75.54
2022-12-23T08:52:11.658Z,75.86
2022-12-23T08:54:40.387Z,75.73
2022-12-23T08:57:07.811Z,75.68
2022-12-23T08:59:35.225Z,75.86
2022-12-23T09:02:03.489Z,75.42
2022-12-23T09:04:31.168Z,75.66
2022-12-23T09:06:58.621Z,75.46
2022-12-23T09:09:26.063Z,75.73
2022-12-23T09:11:54.866Z,75.58
2022-12-23T09:14:22.421Z,75.57
2022-12-23T09:16:51.079Z,75.53
2022-12-23T09:19:18.629Z,75.35
2022-12-23T09:21:46.166Z,75.32
2022-12-23T09:24:13.673Z,75.17
2022-12-23T09:26:41.096Z,75.21
2022-12-23T09:29:09.919Z,75.57
2022-12-23T09:31:38.172Z,75.39
2022-12-23T09:34:06.001Z,75.53
2022-12-23T09:36:33.654Z,75.55
2022-12-23T09:39:01.152Z,75.44
2022-12-23T09:41:42.739Z,75.33
2022-12-23T09:44:23.083Z,75.53
2022-12-23T09:46:51.926Z,75.50
2022-12-23T09:49:19.397Z,75.36
2022-12-23T09:51:46.883Z,75.21
2022-12-23T09:54:17.455Z,75.35
2022-12-23T09:56:48.429Z,75.27
2022-12-23T09:59:23.735Z,75.18
2022-12-23T10:01:55.208Z,75.12
2022-12-23T10:04:40.592Z,75.35
2022-12-23T10:07:16.062Z,75.03
2022-12-23T10:09:43.791Z,75.19
2022-12-23T10:12:15.168Z,74.93
2022-12-23T10:14:44.016Z,75.15
2022-12-23T10:17:13.298Z,75.06
2022-12-23T10:19:42.665Z,74.86
2022-12-23T10:22:12.924Z,74.88
2022-12-23T10:24:41.250Z,74.87
2022-12-23T10:27:16.274Z,74.91
2022-12-23T10:29:44.982Z,75.12
2022-12-23T10:32:15.934Z,75.10
2022-12-23T10:34:46.058Z,74.92
2022-12-23T10:37:15.923Z,74.88
2022-12-23T10:39:45.698Z,74.68
2022-12-23T10:42:18.097Z,74.88
2022-12-23T10:45:00.367Z,74.91
2022-12-23T10:47:32.526Z,74.87
2022-12-23T10:50:07.880Z,74.89
2022-12-23T10:52:36.445Z,74.67
2022-12-23T10:55:05.255Z,74.59
2022-12-23T10:57:32.666Z,74.72
2022-12-23T11:00:01.372Z,74.55
2022-12-23T11:02:35.656Z,74.74
2022-12-23T11:05:03.230Z,74.58
2022-12-23T11:07:47.160Z,74.80
2022-12-23T11:10:17.525Z,74.67
2022-12-23T11:12:46.002Z,74.61
2022-12-23T11:15:28.099Z,74.63
2022-12-23T11:17:59.765Z,74.88
2022-12-23T11:20:27.307Z,74.70
2022-12-23T11:22:55.360Z,74.90
2022-12-23T11:25:27.763Z,75.42
2022-12-23T11:27:55.720Z,75.20
2022-12-23T11:30:23.328Z,75.31
2022-12-23T11:32:52.064Z,75.38
2022-12-23T11:35:25.215Z,75.18
2022-12-23T11:37:52.718Z,75.13
2022-12-23T11:40:25.301Z,75.25
2022-12-23T11:42:55.426Z,75.06
2022-12-23T11:45:24.586Z,74.83
2022-12-23T11:47:53.513Z,74.82
2022-12-23T11:50:29.168Z,74.76
2022-12-23T11:52:57.591Z,75.05
2022-12-23T11:55:25.939Z,74.99
2022-12-23T11:57:53.484Z,74.92
2022-12-23T12:00:22.100Z,74.55
2022-12-23T12:02:49.898Z,74.79
2022-12-23T12:05:23.526Z,74.58
2022-12-23T12:07:51.176Z,74.67
2022-12-23T12:10:20.183Z,74.81
2022-12-23T12:12:52.787Z,74.51
2022-12-23T12:15:26.625Z,74.90
2022-12-23T12:17:54.096Z,74.62
2022-12-23T12:20:27.614Z,74.74
2022-12-23T12:22:56.600Z,74.59
2022-12-23T12:25:39.684Z,74.54
2022-12-23T12:28:10.930Z,74.45
2022-12-23T12:30:40.476Z,74.60
2022-12-23T12:33:12.268Z,74.26
2022-12-23T12:35:43.384Z,74.51
2022-12-23T12:38:14.503Z,74.62
2022-12-23T12:40:43.042Z,74.34
2022-12-23T12:43:16.964Z,74.22
2022-12-23T12:45:48.667Z,74.24
2022-12-23T12:48:30.491Z,74.32
2022-12-23T12:51:02.282Z,74.34
2022-12-23T12:53:29.804Z,74.50
2022-12-23T12:55:58.306Z,74.28
2022-12-23T12:58:25.743Z,74.31
2022-12-23T13:00:59.506Z,74.29
2022-12-23T13:03:39.768Z,74.36
2022-12-23T13:06:12.647Z,74.31
2022-12-23T13:08:47.949Z,74.18
2022-12-23T13:11:16.978Z,74.18
2022-12-23T13:13:47.821Z,74.13
2022-12-23T13:16:21.688Z,74.16
2022-12-23T13:18:53.319Z,74.22
2022-12-23T13:21:24.077Z,74.35
2022-12-23T13:23:53.442Z,74.17
2022-12-23T13:26:29.059Z,74.10
2022-12-23T13:29:01.885Z,74.06
2022-12-23T13:31:34.937Z,74.07
2022-12-23T13:34:05.591Z,73.92
2022-12-23T13:36:40.364Z,74.00
2022-12-23T13:39:22.962Z,74.09
2022-12-23T13:41:51.084Z,74.29
2022-12-23T13:44:18.762Z,74.25
2022-12-23T13:46:51.524Z,74.25
2022-12-23T13:49:25.208Z,74.18
2022-12-23T13:51:55.986Z,74.23
2022-12-23T13:54:28.541Z,74.11
2022-12-23T13:57:00.942Z,74.43
2022-12-23T13:59:38.411Z,74.26
2022-12-23T14:02:40.747Z,73.94
2022-12-23T14:05:29.718Z,74.31
2022-12-23T14:07:58.655Z,74.29
2022-12-23T14:10:26.081Z,74.32
2022-12-23T14:12:58.459Z,74.30
2022-12-23T14:15:33.663Z,74.04
2022-12-23T14:18:09.575Z,69.72
2022-12-23T14:20:43.099Z,64.25
2022-12-23T14:23:21.347Z,62.47
2022-12-23T14:25:56.345Z,62.00
2022-12-23T14:28:31.205Z,60.04
2022-12-23T14:30:58.725Z,59.76
2022-12-23T14:33:26.899Z,57.88
2022-12-23T14:35:58.063Z,58.96
2022-12-23T14:38:28.644Z,57.80
2022-12-23T14:40:59.432Z,57.40
2022-12-23T14:43:43.128Z,57.12
2022-12-23T14:46:30.969Z,57.73
2022-12-23T14:52:45.082Z,58.16
2022-12-23T14:55:50.227Z,58.80
2022-12-23T14:59:00.985Z,59.61
2022-12-23T15:01:32.252Z,60.25
2022-12-23T15:04:01.796Z,60.94
2022-12-23T15:06:33.367Z,61.06
2022-12-23T15:09:00.901Z,61.72
2022-12-23T15:11:30.505Z,61.91
2022-12-23T15:13:59.315Z,62.21
2022-12-23T15:16:31.549Z,62.62
2022-12-23T15:18:59.992Z,62.90
2022-12-23T15:21:32.015Z,63.20
2022-12-23T15:23:59.489Z,63.24
2022-12-23T15:26:28.454Z,63.77
2022-12-23T15:28:57.378Z,63.88
2022-12-23T15:31:27.582Z,64.12
2022-12-23T15:34:05.239Z,64.45
2022-12-23T15:36:36.912Z,64.54
2022-12-23T15:39:08.694Z,64.80
2022-12-23T15:41:42.537Z,64.98
2022-12-23T15:44:13.346Z,65.09
2022-12-23T15:46:41.044Z,65.22
2022-12-23T15:49:10.441Z,65.69
2022-12-23T15:52:06.324Z,65.46
2022-12-23T15:54:30.622Z,65.74
2022-12-23T15:56:59.242Z,65.79
2022-12-23T15:59:28.857Z,65.97
2022-12-23T16:01:56.446Z,66.44
2022-12-23T16:04:26.367Z,66.44
2022-12-23T16:06:54.125Z,66.54
2022-12-23T16:09:32.878Z,66.56
2022-12-23T16:12:01.347Z,66.84
2022-12-23T16:14:40.849Z,67.01
2022-12-23T16:17:16.201Z,67.03
2022-12-23T16:19:45.222Z,67.19
2022-12-23T16:22:18.244Z,67.25
2022-12-23T16:24:46.833Z,67.28
2022-12-23T16:27:15.396Z,67.33
2022-12-23T16:29:44.119Z,67.42
2022-12-23T16:32:16.307Z,67.49
2022-12-23T16:34:43.902Z,67.64
2022-12-23T16:37:11.383Z,67.64
2022-12-23T16:39:38.955Z,67.83
2022-12-23T16:42:06.394Z,67.90
2022-12-23T16:44:33.797Z,68.02
2022-12-23T16:47:06.146Z,68.29
2022-12-23T16:49:34.275Z,68.46
2022-12-23T16:52:01.924Z,68.34
2022-12-23T16:54:29.362Z,68.47
2022-12-23T16:56:56.799Z,68.89
2022-12-23T16:59:25.846Z,68.63
2022-12-23T17:01:56.536Z,68.41
2022-12-23T17:04:28.338Z,68.85
2022-12-23T17:06:55.791Z,68.62
2022-12-23T17:09:23.287Z,68.76
2022-12-23T17:11:52.025Z,68.86
2022-12-23T17:14:21.382Z,69.02
2022-12-23T17:16:48.937Z,69.01
2022-12-23T17:19:20.498Z,69.00
2022-12-23T17:21:53.837Z,69.22
2022-12-23T17:24:23.031Z,69.56
2022-12-23T17:26:50.766Z,69.89
2022-12-23T17:29:18.497Z,69.77
2022-12-23T17:31:46.269Z,69.82
2022-12-23T17:34:15.131Z,69.63
2022-12-23T17:36:49.181Z,69.97
2022-12-23T17:39:19.077Z,69.70
2022-12-23T17:41:46.725Z,69.71
2022-12-23T17:44:14.789Z,69.93
2022-12-23T17:46:42.373Z,69.65
2022-12-23T17:49:09.967Z,69.88
2022-12-23T17:51:37.470Z,70.02
2022-12-23T17:54:06.465Z,70.26
2022-12-23T17:56:35.591Z,70.55
2022-12-23T17:59:03.017Z,70.56
2022-12-23T18:01:31.548Z,70.21
2022-12-23T18:03:59.760Z,70.31
2022-12-23T18:06:28.047Z,70.16
2022-12-23T18:08:56.848Z,70.05
2022-12-23T18:11:30.738Z,70.37
2022-12-23T18:13:59.561Z,70.11
2022-12-23T18:16:27.125Z,70.25
2022-12-23T18:18:54.794Z,70.40
2022-12-23T18:21:23.674Z,70.44
2022-12-23T18:23:51.204Z,70.37
2022-12-23T18:26:18.756Z,70.85
2022-12-23T18:28:46.297Z,71.72
2022-12-23T18:31:16.799Z,71.94
2022-12-23T18:33:45.073Z,71.55
2022-12-23T18:36:23.131Z,71.28
2022-12-23T18:38:53.670Z,70.76
2022-12-23T18:41:21.499Z,70.94
2022-12-23T18:43:48.984Z,70.80
2022-12-23T18:46:17.834Z,70.72
2022-12-23T18:48:45.332Z,70.59
2022-12-23T18:51:14.537Z,71.06
2022-12-23T18:53:43.445Z,70.76
2022-12-23T18:56:13.243Z,70.90
2022-12-23T18:58:40.802Z,70.62
2022-12-23T19:01:12.008Z,70.70
2022-12-23T19:03:40.902Z,70.99
2022-12-23T19:06:08.986Z,70.88
2022-12-23T19:08:36.654Z,70.83
2022-12-23T19:11:10.655Z,70.79
2022-12-23T19:13:38.191Z,70.75
2022-12-23T19:16:06.108Z,70.92
2022-12-23T19:18:33.635Z,71.23
2022-12-23T19:21:05.417Z,71.86
2022-12-23T19:23:33.105Z,71.57
2022-12-23T19:26:00.634Z,71.38
2022-12-23T19:28:28.155Z,72.06
2022-12-23T19:30:55.712Z,71.64
2022-12-23T19:33:23.300Z,71.74
2022-12-23T19:35:50.785Z,71.76
2022-12-23T19:38:19.648Z,71.87
2022-12-23T19:40:47.202Z,71.93
2022-12-23T19:43:14.662Z,71.97
2022-12-23T19:45:42.161Z,72.10
2022-12-23T19:48:09.878Z,72.14
2022-12-23T19:50:37.367Z,72.31
2022-12-23T19:53:04.903Z,71.87
2022-12-23T19:55:33.778Z,72.48
2022-12-23T19:58:01.254Z,72.36
2022-12-23T20:00:28.724Z,72.36
2022-12-23T20:02:58.963Z,72.65
2022-12-23T20:05:26.893Z,72.43
2022-12-23T20:07:54.328Z,72.64
2022-12-23T20:10:21.808Z,72.45
2022-12-23T20:12:50.490Z,72.29
2022-12-23T20:15:18.006Z,72.59
2022-12-23T20:17:45.485Z,72.76
2022-12-23T20:20:13.144Z,72.44
2022-12-23T20:22:40.564Z,72.59
2022-12-23T20:25:08.590Z,72.41
2022-12-23T20:27:37.882Z,72.56
2022-12-23T20:30:08.074Z,72.64
2022-12-23T20:32:35.553Z,72.38
2022-12-23T20:35:02.979Z,72.59
2022-12-23T20:37:30.412Z,72.42
2022-12-23T20:39:58.044Z,72.75
2022-12-23T20:42:27.025Z,72.57
2022-12-23T20:44:54.437Z,72.77
2022-12-23T20:47:23.150Z,72.62
2022-12-23T20:49:50.621Z,72.52
2022-12-23T20:52:18.031Z,72.48
2022-12-23T20:54:45.453Z,72.67
2022-12-23T20:57:12.974Z,72.64
2022-12-23T20:59:40.404Z,72.36
2022-12-23T21:02:07.872Z,72.64
2022-12-23T21:04:36.603Z,72.49
2022-12-23T21:07:04.047Z,72.62
2022-12-23T21:09:31.579Z,72.55
2022-12-23T21:11:59.051Z,72.79
2022-12-23T21:14:26.546Z,72.32
2022-12-23T21:16:54.511Z,72.58
2022-12-23T21:19:22.808Z,72.52
2022-12-23T21:21:51.643Z,72.61
2022-12-23T21:24:19.192Z,72.83
2022-12-23T21:26:53.524Z,73.01
2022-12-23T21:29:23.356Z,72.67
2022-12-23T21:31:50.857Z,72.59
2022-12-23T21:34:18.337Z,72.79
2022-12-23T21:36:45.784Z,72.61
2022-12-23T21:39:15.568Z,72.70
2022-12-23T21:41:43.134Z,72.62
2022-12-23T21:44:11.041Z,72.48
2022-12-23T21:46:38.574Z,72.42
2022-12-23T21:49:06.001Z,72.67
2022-12-23T21:51:40.124Z,72.95
2022-12-23T21:54:08.662Z,72.87
2022-12-23T21:56:37.355Z,72.66
2022-12-23T21:59:06.341Z,73.09
2022-12-23T22:01:33.862Z,72.97
2022-12-23T22:04:01.440Z,73.12
2022-12-23T22:06:29.678Z,72.92
2022-12-23T22:08:57.350Z,72.90
2022-12-23T22:11:25.630Z,73.33
2022-12-23T22:13:54.306Z,73.56
2022-12-23T22:16:22.680Z,73.47
2022-12-23T22:18:50.322Z,73.41
2022-12-23T22:21:18.847Z,73.20
2022-12-23T22:23:47.177Z,73.21
2022-12-23T22:26:18.871Z,72.96
2022-12-23T22:28:51.445Z,72.90
2022-12-23T22:31:21.838Z,72.92
2022-12-23T22:33:49.313Z,73.08
2022-12-23T22:36:16.818Z,72.69
2022-12-23T22:38:44.292Z,72.83
2022-12-23T22:41:11.801Z,72.72
2022-12-23T22:43:39.257Z,73.03
2022-12-23T22:46:07.114Z,72.94
2022-12-23T22:48:36.193Z,72.79
2022-12-23T22:51:03.938Z,73.09
2022-12-23T22:53:31.340Z,73.25
2022-12-23T22:55:59.397Z,73.12
2022-12-23T22:58:26.883Z,73.16
2022-12-23T23:00:54.303Z,72.85
2022-12-23T23:03:21.703Z,72.79
2022-12-23T23:05:58.399Z,72.96
2022-12-23T23:08:25.941Z,72.76
2022-12-23T23:10:53.360Z,72.71
2022-12-23T23:13:20.838Z,72.85
2022-12-23T23:15:48.362Z,72.54
2022-12-23T23:18:15.780Z,72.74
2022-12-23T23:20:43.207Z,72.85
2022-12-23T23:23:11.922Z,72.80
2022-12-23T23:25:39.336Z,73.23
2022-12-23T23:28:06.766Z,73.07
2022-12-23T23:30:34.170Z,73.25
2022-12-23T23:33:01.587Z,73.21
2022-12-23T23:35:29.029Z,73.14
2022-12-23T23:37:56.959Z,73.12
2022-12-23T23:40:25.644Z,73.24
2022-12-23T23:42:53.090Z,73.02
2022-12-23T23:45:20.558Z,73.12
2022-12-23T23:47:47.975Z,73.00
2022-12-23T23:50:15.392Z,72.92
2022-12-23T23:52:42.819Z,72.97
2022-12-23T23:55:10.555Z,73.37
2022-12-23T23:57:39.262Z,73.17
